الصفحة الرئيسية
METAR-TAF:

METAR-TAF

مطار :

باتام, إندونيسيا

دائرة عرض: 01-07-15N, خط طول: 104-07-07E, ارتفاع: 38 متر

مراقبة الطقس الحالي

تاريخ ووقت الإصدار 2ساعات و 22 دقيقة قبل الساعة 16:00UTC
ريح 8 عقدة من الجنوب/الجنوب الشرقي
درجة الحرارة 29°درجة مئوية
الرطوبة 74%
ضغط 1011 hPa
الرؤية 10 كم أو أكثر
غيوم متفرقة على ارتفاع 1400 قدم

METAR: WIDD 021600Z 15008KT 9999 SCT014 29/24 Q1011 NOSIG

زمن: 01:22 (18:22 UTC)

توقعات

تاريخ ووقت الإصدار 7ساعات و 22 دقيقة قبل الساعة 11:00UTC
التوقعات صالحة من02 الساعة 12 UTC إلى 03 الساعة 12 UTC
ريح 5 عقدة من الجنوب الشرقي
الرؤية 10 كم أو أكثر
غيوم متفرقة على ارتفاع 1400 قدم

TAF: WIDD 021100Z 0212/0312 14005KT 9999 SCT014

أرصاد الطقس والتوقعات من أكثر من 4000 مطار (تقارير الطقس للمطار METAR والتنبؤ بالطقس بالمطارTAF).

المحطات المتاحة هي النقط الصفراء والحمراء على الخريطة.

حرك المؤشر فوق النقطة لمعرفة اسم المحطة.

ثم انقر لمعرفة أرصاد وتوقعات الطقس.

لتغيير الخارطة: اضغط على الأزرار الخضراء مع رمز الصليب الأسود للتكبير. على الزر الأخضر مع شرطة للتصغير، أو على الأسهم الخضراء للخرائط المجاورة.


METAR-TAF: